Time;durP1;ratioP1;P1;durP2;ratioP2;P2;SDS_P1;SDS_P2;PMS_P1;PMS_P2;Temp;Humidity;BMP_temperature;BMP_pressure;BME280_temperature;BME280_humidity;BME280_pressure;Samples;Min_cycle;Max_cycle;Signal;HPM_P1;HPM_P2
2022/11/25 00:00:23;;;;;;;20.30;14.90;;;;;;;-0.21;100.00;96540.64;105126;1280;25386;-79
2022/11/25 00:03:14;;;;;;;20.40;13.90;;;;;;;-0.25;100.00;96534.14;105167;1305;22453;-79
2022/11/25 00:05:45;;;;;;;17.30;12.60;;;;;;;-0.25;100.00;96534.63;105209;1302;23784;-79
2022/11/25 00:08:17;;;;;;;19.40;14.10;;;;;;;-0.27;100.00;96536.73;105150;1305;22522;-79
2022/11/25 00:10:48;;;;;;;17.20;12.60;;;;;;;-0.27;100.00;96537.09;105222;1290;22500;-78
2022/11/25 00:13:19;;;;;;;19.20;13.00;;;;;;;-0.26;100.00;96538.85;105295;1297;22476;-78
2022/11/25 00:15:50;;;;;;;15.20;10.10;;;;;;;-0.24;100.00;96537.90;105133;1302;23967;-78
2022/11/25 00:18:21;;;;;;;17.30;11.70;;;;;;;-0.22;100.00;96538.08;105230;1297;22501;-78
2022/11/25 00:20:53;;;;;;;15.50;10.60;;;;;;;-0.20;100.00;96536.25;105172;1280;25472;-78
2022/11/25 00:23:24;;;;;;;14.10;9.30;;;;;;;-0.20;100.00;96535.58;105192;1290;24273;-78
2022/11/25 00:25:55;;;;;;;16.90;11.60;;;;;;;-0.17;100.00;96535.19;105209;1297;24940;-78
2022/11/25 00:28:27;;;;;;;17.40;11.80;;;;;;;-0.14;100.00;96537.41;105132;1275;22489;-78
2022/11/25 00:31:06;;;;;;;15.60;11.00;;;;;;;-0.12;100.00;96538.17;105256;1305;22495;-78
2022/11/25 00:33:38;;;;;;;14.00;9.70;;;;;;;-0.10;100.00;96538.77;105328;1297;22556;-78
2022/11/25 00:36:19;;;;;;;14.40;9.60;;;;;;;-0.08;100.00;96536.42;105170;1290;24219;-78
2022/11/25 00:38:55;;;;;;;16.60;12.50;;;;;;;-0.06;100.00;96541.09;105282;1306;22487;-78
2022/11/25 00:44:36;;;;;;;15.00;11.00;;;;;;;-0.04;100.00;96533.00;105145;1284;22476;-78
2022/11/25 00:47:12;;;;;;;15.80;12.00;;;;;;;-0.04;100.00;96529.83;105135;1304;24381;-78
2022/11/25 00:49:45;;;;;;;18.80;13.40;;;;;;;-0.02;100.00;96536.71;105076;1305;22476;-78
2022/11/25 00:52:17;;;;;;;19.80;14.50;;;;;;;-0.02;100.00;96536.56;105114;1304;22536;-78
2022/11/25 00:54:52;;;;;;;18.00;13.00;;;;;;;-0.02;100.00;96546.02;105123;1296;23811;-77
2022/11/25 00:57:24;;;;;;;18.70;13.90;;;;;;;-0.02;100.00;96553.71;105266;1297;22499;-78
2022/11/25 00:59:55;;;;;;;14.40;10.20;;;;;;;-0.03;100.00;96558.13;105182;1281;22860;-78
2022/11/25 01:02:26;;;;;;;11.20;8.20;;;;;;;-0.03;100.00;96559.14;105144;1303;22519;-77
2022/11/25 01:04:58;;;;;;;10.90;7.40;;;;;;;0.02;100.00;96556.98;105125;1304;22475;-77
2022/11/25 01:07:29;;;;;;;11.80;7.90;;;;;;;0.11;100.00;96562.56;105259;1292;22458;-78
2022/11/25 01:10:03;;;;;;;13.50;8.30;;;;;;;0.12;100.00;96568.76;105176;1288;22484;-78
2022/11/25 01:12:34;;;;;;;11.90;8.60;;;;;;;0.11;100.00;96566.20;105170;1303;25372;-78
2022/11/25 01:15:06;;;;;;;13.60;9.60;;;;;;;0.10;100.00;96564.94;105132;1288;24339;-77
2022/11/25 01:17:38;;;;;;;13.90;9.80;;;;;;;0.10;100.00;96568.83;105171;1302;22481;-78
2022/11/25 01:20:12;;;;;;;14.50;10.10;;;;;;;0.09;100.00;96566.15;105142;1299;25472;-78
2022/11/25 01:22:43;;;;;;;12.90;9.90;;;;;;;0.08;100.00;96562.95;105196;1296;25394;-78
2022/11/25 01:25:15;;;;;;;12.90;9.40;;;;;;;0.08;100.00;96568.55;105051;1304;22699;-77
2022/11/25 01:27:46;;;;;;;13.20;9.30;;;;;;;0.06;100.00;96567.98;105106;1304;22470;-77
2022/11/25 01:30:23;;;;;;;12.30;9.60;;;;;;;0.05;100.00;96569.80;105164;1284;22487;-78
2022/11/25 01:32:54;;;;;;;14.50;9.70;;;;;;;0.07;100.00;96566.13;105133;1277;23343;-78
2022/11/25 01:35:25;;;;;;;14.00;9.30;;;;;;;0.08;100.00;96564.52;105059;1298;25097;-78
2022/11/25 01:37:56;;;;;;;13.40;9.90;;;;;;;0.11;100.00;96566.56;105128;1292;22612;-77
2022/11/25 01:40:27;;;;;;;11.80;8.40;;;;;;;0.14;100.00;96566.23;105115;1305;25388;-78
2022/11/25 01:42:58;;;;;;;13.50;8.90;;;;;;;0.19;100.00;96569.03;105134;1303;22577;-77
2022/11/25 01:45:37;;;;;;;11.80;8.10;;;;;;;0.22;100.00;96572.02;105086;1288;26520;-77
2022/11/25 01:48:16;;;;;;;11.80;7.80;;;;;;;0.22;100.00;96568.64;105076;1304;22533;-77
2022/11/25 01:50:49;;;;;;;11.50;8.00;;;;;;;0.23;100.00;96571.52;105126;1302;22500;-78
2022/11/25 01:53:22;;;;;;;12.90;9.00;;;;;;;0.24;100.00;96566.09;104266;1304;22471;-78
2022/11/25 01:55:58;;;;;;;14.50;10.30;;;;;;;0.25;100.00;96564.52;105092;1297;22489;-78
2022/11/25 01:58:33;;;;;;;16.20;11.30;;;;;;;0.25;100.00;96568.77;105154;1303;22542;-77
2022/11/25 02:01:05;;;;;;;13.90;9.90;;;;;;;0.25;100.00;96571.23;105109;1305;22486;-77
2022/11/25 02:03:42;;;;;;;14.30;10.00;;;;;;;0.26;100.00;96576.59;105137;1299;22518;-77
2022/11/25 02:06:19;;;;;;;15.70;11.50;;;;;;;0.28;100.00;96574.11;105085;1295;23883;-77
2022/11/25 02:08:54;;;;;;;12.40;8.90;;;;;;;0.29;100.00;96572.85;105145;1305;22605;-78
2022/11/25 02:11:29;;;;;;;13.00;9.90;;;;;;;0.31;100.00;96572.23;105101;1305;22510;-77
2022/11/25 02:14:04;;;;;;;15.10;11.00;;;;;;;0.32;100.00;96571.09;105125;1303;22478;-78
2022/11/25 02:16:35;;;;;;;12.80;10.00;;;;;;;0.30;100.00;96568.70;105060;1304;25214;-77
2022/11/25 02:19:12;;;;;;;15.40;10.00;;;;;;;0.27;100.00;96568.23;105140;1297;25438;-78
2022/11/25 02:21:50;;;;;;;15.90;10.00;;;;;;;0.30;100.00;96568.31;105127;1297;25168;-77
2022/11/25 02:24:32;;;;;;;15.00;10.20;;;;;;;0.31;100.00;96568.46;105131;1305;22489;-78
2022/11/25 02:27:03;;;;;;;14.10;10.20;;;;;;;0.34;100.00;96570.23;105087;1305;22986;-78
2022/11/25 02:29:36;;;;;;;13.30;9.00;;;;;;;0.36;100.00;96569.17;105140;1305;22480;-78
2022/11/25 02:32:07;;;;;;;13.90;9.40;;;;;;;0.36;100.00;96568.60;105121;1296;25330;-78
2022/11/25 02:34:48;;;;;;;15.20;10.60;;;;;;;0.36;100.00;96565.43;105129;1305;22514;-77
2022/11/25 02:37:22;;;;;;;13.80;9.80;;;;;;;0.37;100.00;96564.20;105162;1304;22451;-78
2022/11/25 02:39:57;;;;;;;14.50;10.40;;;;;;;0.37;100.00;96563.14;105173;1302;22472;-77
2022/11/25 02:42:33;;;;;;;13.40;9.10;;;;;;;0.35;100.00;96565.45;105147;1304;22604;-77
2022/11/25 02:45:10;;;;;;;13.90;8.30;;;;;;;0.33;100.00;96562.23;105101;1293;22491;-77
2022/11/25 02:47:42;;;;;;;12.10;8.40;;;;;;;0.30;100.00;96559.26;105128;1305;24256;-77
2022/11/25 02:50:14;;;;;;;9.80;7.40;;;;;;;0.27;100.00;96557.56;105241;1291;22588;-77
2022/11/25 02:52:46;;;;;;;10.60;7.60;;;;;;;0.25;100.00;96554.54;105201;1304;22479;-77
2022/11/25 02:55:17;;;;;;;11.10;7.60;;;;;;;0.24;100.00;96561.73;105122;1305;23405;-77
2022/11/25 02:57:48;;;;;;;11.40;7.00;;;;;;;0.23;100.00;96567.31;105273;1305;22468;-77
2022/11/25 03:00:21;;;;;;;10.30;6.40;;;;;;;0.24;100.00;96568.39;105166;1296;22490;-77
2022/11/25 03:02:54;;;;;;;9.70;7.10;;;;;;;0.27;100.00;96574.02;105226;1281;22940;-77
2022/11/25 03:05:28;;;;;;;10.20;7.00;;;;;;;0.30;100.00;96572.80;105033;1305;22471;-77
2022/11/25 03:08:00;;;;;;;9.10;5.80;;;;;;;0.30;100.00;96575.05;105158;1305;23905;-77
2022/11/25 03:10:33;;;;;;;9.00;6.40;;;;;;;0.35;100.00;96575.36;105122;1296;22504;-77
2022/11/25 03:13:06;;;;;;;7.30;5.40;;;;;;;0.38;100.00;96575.77;105190;1281;24265;-77
2022/11/25 03:15:38;;;;;;;8.90;6.30;;;;;;;0.39;100.00;96577.20;105221;1303;22945;-77
2022/11/25 03:18:09;;;;;;;10.40;7.10;;;;;;;0.36;100.00;96579.15;105221;1305;22539;-77
2022/11/25 03:20:40;;;;;;;10.60;7.10;;;;;;;0.36;100.00;96581.81;105204;1305;22752;-77
2022/11/25 03:23:12;;;;;;;10.70;7.40;;;;;;;0.39;100.00;96581.84;105193;1303;25364;-77
2022/11/25 03:25:43;;;;;;;8.70;6.60;;;;;;;0.38;100.00;96583.74;105111;1287;22521;-77
2022/11/25 03:28:16;;;;;;;10.10;5.80;;;;;;;0.40;100.00;96585.82;105132;1297;22475;-77
2022/11/25 03:30:47;;;;;;;9.40;6.60;;;;;;;0.46;100.00;96586.94;105112;1287;22526;-77
2022/11/25 03:33:19;;;;;;;8.70;6.40;;;;;;;0.53;100.00;96587.73;105146;1303;22464;-77
2022/11/25 03:35:51;;;;;;;10.10;6.40;;;;;;;0.51;100.00;96592.95;105101;1305;25248;-77
2022/11/25 03:38:25;;;;;;;10.50;5.80;;;;;;;0.48;100.00;96593.61;105143;1304;25380;-77
2022/11/25 03:40:58;;;;;;;9.90;5.90;;;;;;;0.53;100.00;96596.29;105139;1303;25324;-77
2022/11/25 03:43:29;;;;;;;9.80;6.70;;;;;;;0.58;100.00;96601.32;105115;1288;22492;-77
2022/11/25 03:46:00;;;;;;;12.00;7.60;;;;;;;0.60;100.00;96601.90;105103;1305;22482;-77
2022/11/25 03:48:32;;;;;;;10.70;7.30;;;;;;;0.62;100.00;96602.20;105081;1294;22626;-77
2022/11/25 03:51:03;;;;;;;10.20;7.10;;;;;;;0.63;100.00;96602.48;105105;1305;22499;-77
2022/11/25 03:53:37;;;;;;;11.20;6.80;;;;;;;0.62;100.00;96606.05;105136;1290;22521;-77
2022/11/25 03:56:09;;;;;;;11.60;7.50;;;;;;;0.62;100.00;96607.79;105122;1291;22489;-77
2022/11/25 03:58:41;;;;;;;11.00;7.30;;;;;;;0.62;100.00;96604.70;105244;1303;22500;-77
2022/11/25 04:01:12;;;;;;;12.90;8.00;;;;;;;0.63;100.00;96608.77;105121;1305;22859;-77
2022/11/25 04:03:43;;;;;;;11.30;7.80;;;;;;;0.66;100.00;96608.37;105100;1297;22896;-77
2022/11/25 04:06:19;;;;;;;13.40;8.50;;;;;;;0.68;100.00;96610.83;105116;1303;27900;-77
2022/11/25 04:08:50;;;;;;;13.20;8.50;;;;;;;0.71;100.00;96610.38;105143;1285;24258;-77
2022/11/25 04:11:21;;;;;;;15.10;8.50;;;;;;;0.73;100.00;96610.21;105100;1305;22485;-77
2022/11/25 04:14:12;;;;;;;14.50;8.40;;;;;;;0.79;100.00;96605.01;105242;1296;22484;-77
2022/11/25 04:16:44;;;;;;;13.50;8.70;;;;;;;0.82;100.00;96609.21;105157;1305;24272;-77
2022/11/25 04:19:17;;;;;;;11.30;7.30;;;;;;;0.83;100.00;96607.05;105184;1292;23147;-77
2022/11/25 04:21:48;;;;;;;12.00;7.60;;;;;;;0.83;100.00;96613.83;105238;1304;22503;-77
2022/11/25 04:24:19;;;;;;;11.60;8.20;;;;;;;0.81;100.00;96613.16;105162;1287;22460;-77
2022/11/25 04:26:51;;;;;;;12.60;8.40;;;;;;;0.80;100.00;96619.03;105164;1303;22471;-77
2022/11/25 04:29:22;;;;;;;13.00;8.70;;;;;;;0.78;100.00;96610.95;105287;1294;22482;-77
2022/11/25 04:31:54;;;;;;;12.80;8.70;;;;;;;0.76;100.00;96615.71;105204;1305;22911;-77
2022/11/25 04:34:25;;;;;;;20.00;13.70;;;;;;;0.72;100.00;96614.08;105098;1298;23286;-77
2022/11/25 04:36:58;;;;;;;15.20;10.30;;;;;;;0.67;100.00;96613.14;105106;1279;22422;-77
2022/11/25 04:39:29;;;;;;;13.60;8.70;;;;;;;0.64;100.00;96612.85;105102;1304;24268;-77
2022/11/25 04:44:46;;;;;;;11.30;7.60;;;;;;;0.62;100.00;96614.92;105078;1299;23250;-77
2022/11/25 04:47:17;;;;;;;11.60;6.90;;;;;;;0.62;100.00;96618.21;105138;1305;22471;-77
2022/11/25 04:49:48;;;;;;;11.10;8.10;;;;;;;0.64;100.00;96619.79;105205;1305;22567;-77
2022/11/25 04:52:19;;;;;;;11.70;8.20;;;;;;;0.69;100.00;96622.55;105128;1294;22519;-77
2022/11/25 04:54:51;;;;;;;13.60;9.30;;;;;;;0.70;100.00;96626.76;105034;1288;22492;-77
2022/11/25 04:57:23;;;;;;;13.00;9.10;;;;;;;0.69;100.00;96627.56;105110;1280;22864;-77
2022/11/25 04:59:56;;;;;;;13.00;8.70;;;;;;;0.71;100.00;96629.58;105115;1306;22532;-77
2022/11/25 05:02:30;;;;;;;13.20;9.20;;;;;;;0.72;100.00;96634.62;105090;1305;25322;-77
2022/11/25 05:05:03;;;;;;;13.90;9.20;;;;;;;0.73;100.00;96636.51;105068;1287;22581;-77
2022/11/25 05:07:35;;;;;;;12.60;9.10;;;;;;;0.73;100.00;96640.00;105110;1304;22494;-77
2022/11/25 05:10:08;;;;;;;13.20;8.90;;;;;;;0.75;100.00;96640.89;105128;1304;25371;-77
2022/11/25 05:12:40;;;;;;;14.20;9.00;;;;;;;0.77;100.00;96641.67;105155;1291;22914;-77
2022/11/25 05:15:15;;;;;;;17.40;10.40;;;;;;;0.76;100.00;96643.61;105083;1299;22699;-76
2022/11/25 05:17:46;;;;;;;33.60;15.10;;;;;;;0.77;100.00;96648.98;105173;1306;22961;-77
2022/11/25 05:20:17;;;;;;;19.70;10.50;;;;;;;0.77;100.00;96652.27;105263;1287;24236;-76
2022/11/25 05:22:49;;;;;;;14.80;8.70;;;;;;;0.77;100.00;96654.20;105149;1302;22567;-77
2022/11/25 05:25:23;;;;;;;94.40;56.00;;;;;;;0.77;100.00;96655.77;105140;1287;22468;-76
2022/11/25 05:27:54;;;;;;;30.70;20.90;;;;;;;0.74;100.00;96654.87;105133;1294;22780;-77
2022/11/25 05:30:25;;;;;;;18.80;11.70;;;;;;;0.71;100.00;96656.06;105229;1294;22479;-77
2022/11/25 05:32:57;;;;;;;14.50;9.10;;;;;;;0.69;100.00;96658.27;105091;1305;22474;-76
2022/11/25 05:35:28;;;;;;;16.50;9.20;;;;;;;0.68;100.00;96656.06;105045;1305;22474;-76
2022/11/25 05:38:03;;;;;;;19.30;9.10;;;;;;;0.71;100.00;96656.42;105108;1304;22701;-76
2022/11/25 05:40:34;;;;;;;16.00;9.40;;;;;;;0.74;100.00;96659.77;105105;1287;23923;-76
2022/11/25 05:43:05;;;;;;;11.70;7.30;;;;;;;0.78;100.00;96664.52;105122;1305;22467;-77
2022/11/25 05:45:38;;;;;;;13.70;8.70;;;;;;;0.79;100.00;96664.24;105063;1304;22921;-77
2022/11/25 05:48:09;;;;;;;13.10;8.20;;;;;;;0.81;100.00;96669.16;105118;1300;22483;-77
2022/11/25 05:50:43;;;;;;;14.50;8.20;;;;;;;0.82;100.00;96675.61;105102;1304;22655;-76
2022/11/25 05:53:16;;;;;;;12.40;8.00;;;;;;;0.84;100.00;96677.16;105097;1281;23653;-76
2022/11/25 05:55:56;;;;;;;13.00;8.10;;;;;;;0.84;100.00;96679.61;105050;1297;24229;-76
2022/11/25 05:58:28;;;;;;;12.40;7.30;;;;;;;0.83;100.00;96680.54;105152;1292;25451;-76
2022/11/25 06:01:06;;;;;;;14.10;9.50;;;;;;;0.82;100.00;96681.91;105127;1303;23227;-77
2022/11/25 06:03:38;;;;;;;13.60;8.30;;;;;;;0.83;100.00;96686.73;105098;1301;22477;-77
2022/11/25 06:06:12;;;;;;;15.80;8.60;;;;;;;0.81;100.00;96690.23;105090;1308;25918;-76
2022/11/25 06:08:44;;;;;;;13.00;8.20;;;;;;;0.80;100.00;96695.27;105139;1302;25281;-76
2022/11/25 06:11:18;;;;;;;12.90;7.20;;;;;;;0.81;100.00;96693.77;105146;1293;22795;-76
2022/11/25 06:13:49;;;;;;;13.30;7.70;;;;;;;0.81;100.00;96700.67;105133;1308;22511;-76
2022/11/25 06:16:23;;;;;;;15.40;8.90;;;;;;;0.81;100.00;96698.27;105044;1303;22472;-76
2022/11/25 06:18:54;;;;;;;13.60;8.10;;;;;;;0.81;100.00;96698.84;105118;1287;22933;-76
2022/11/25 06:21:26;;;;;;;13.50;7.70;;;;;;;0.80;100.00;96701.38;105136;1282;22549;-76
2022/11/25 06:23:59;;;;;;;13.50;8.60;;;;;;;0.81;100.00;96702.60;105254;1287;24967;-76
2022/11/25 06:26:30;;;;;;;12.90;8.50;;;;;;;0.82;100.00;96702.63;105072;1304;22648;-76
2022/11/25 06:29:03;;;;;;;14.20;8.00;;;;;;;0.84;100.00;96704.79;105124;1311;22479;-76
2022/11/25 06:31:34;;;;;;;13.40;8.30;;;;;;;0.86;100.00;96702.89;105128;1305;22908;-76
2022/11/25 06:34:08;;;;;;;10.70;6.70;;;;;;;0.89;100.00;96707.97;105136;1280;23722;-76
2022/11/25 06:36:39;;;;;;;10.30;7.90;;;;;;;0.89;100.00;96709.66;105097;1310;22522;-76
2022/11/25 06:39:13;;;;;;;13.40;7.50;;;;;;;0.89;100.00;96710.06;105118;1290;25942;-76
2022/11/25 06:41:45;;;;;;;12.90;7.40;;;;;;;0.88;100.00;96710.51;105145;1296;22877;-76
2022/11/25 06:44:17;;;;;;;13.20;7.00;;;;;;;0.88;100.00;96714.20;105098;1304;22725;-76
2022/11/25 06:46:49;;;;;;;13.10;8.10;;;;;;;0.88;100.00;96716.57;105176;1302;24629;-76
2022/11/25 06:49:20;;;;;;;13.10;6.50;;;;;;;0.89;100.00;96719.09;105264;1297;23648;-76
2022/11/25 06:51:52;;;;;;;12.60;8.20;;;;;;;0.89;100.00;96721.98;105195;1290;23665;-76
2022/11/25 06:54:24;;;;;;;12.80;7.30;;;;;;;0.90;100.00;96722.83;105176;1302;22475;-76
2022/11/25 06:56:59;;;;;;;14.90;8.40;;;;;;;0.90;100.00;96724.34;105099;1298;22479;-76
2022/11/25 06:59:30;;;;;;;11.70;7.10;;;;;;;0.89;100.00;96724.48;105196;1305;22550;-76
2022/11/25 07:02:02;;;;;;;12.00;7.30;;;;;;;0.90;100.00;96726.11;105148;1305;22475;-76
2022/11/25 07:04:34;;;;;;;12.20;7.20;;;;;;;0.90;100.00;96727.11;105139;1296;25414;-76
2022/11/25 07:07:07;;;;;;;11.20;7.20;;;;;;;0.91;100.00;96729.71;105076;1304;22523;-76
2022/11/25 07:09:38;;;;;;;10.50;6.80;;;;;;;0.92;100.00;96730.45;105124;1304;22466;-76
2022/11/25 07:12:11;;;;;;;10.30;7.30;;;;;;;0.91;100.00;96731.27;105114;1305;22506;-77
2022/11/25 07:14:42;;;;;;;12.20;6.90;;;;;;;0.95;100.00;96732.40;105122;1305;22490;-76
2022/11/25 07:17:14;;;;;;;10.70;7.20;;;;;;;0.96;100.00;96731.30;105101;1305;22735;-76
2022/11/25 07:19:46;;;;;;;11.70;7.40;;;;;;;0.96;100.00;96737.40;105103;1297;22691;-76
2022/11/25 07:22:17;;;;;;;11.50;7.70;;;;;;;0.94;100.00;96738.07;105187;1298;23048;-76
2022/11/25 07:24:49;;;;;;;9.10;6.40;;;;;;;0.93;100.00;96741.06;105097;1289;23168;-76
2022/11/25 07:27:21;;;;;;;10.90;6.90;;;;;;;0.91;100.00;96745.24;105095;1304;22575;-76
2022/11/25 07:29:52;;;;;;;12.00;7.90;;;;;;;0.92;100.00;96742.71;105111;1305;22467;-76
2022/11/25 07:32:27;;;;;;;11.70;7.20;;;;;;;0.93;100.00;96744.67;105061;1290;22500;-76
2022/11/25 07:34:58;;;;;;;14.40;7.80;;;;;;;0.93;100.00;96743.74;105071;1306;22471;-76
2022/11/25 07:37:29;;;;;;;13.10;7.30;;;;;;;0.96;100.00;96742.42;105164;1304;22491;-75
2022/11/25 07:40:01;;;;;;;11.40;7.30;;;;;;;0.98;100.00;96742.94;105165;1294;22471;-75
2022/11/25 07:42:33;;;;;;;10.90;7.20;;;;;;;1.00;100.00;96745.75;105207;1304;22642;-76
2022/11/25 07:45:05;;;;;;;11.80;7.40;;;;;;;1.03;100.00;96742.95;105141;1276;22467;-76
2022/11/25 07:47:37;;;;;;;11.40;7.50;;;;;;;1.03;100.00;96746.92;105185;1305;22483;-76
2022/11/25 07:50:10;;;;;;;11.80;7.90;;;;;;;1.02;100.00;96748.05;105178;1288;24302;-76
2022/11/25 07:52:42;;;;;;;12.30;7.30;;;;;;;1.04;100.00;96758.67;105156;1291;24023;-76
2022/11/25 07:55:13;;;;;;;12.90;8.50;;;;;;;1.05;100.00;96754.00;105071;1304;22954;-76
2022/11/25 07:57:45;;;;;;;12.90;8.80;;;;;;;1.06;100.00;96760.17;105190;1305;22739;-76
2022/11/25 08:00:18;;;;;;;13.70;9.10;;;;;;;1.07;100.00;96761.27;105199;1296;25435;-76
2022/11/25 08:02:49;;;;;;;13.70;9.90;;;;;;;1.07;100.00;96762.70;105136;1304;22648;-76
2022/11/25 08:05:22;;;;;;;16.30;10.30;;;;;;;1.05;100.00;96766.10;105112;1281;23043;-76
2022/11/25 08:07:53;;;;;;;16.60;10.90;;;;;;;1.06;100.00;96769.73;105192;1292;22547;-76
2022/11/25 08:10:24;;;;;;;13.40;9.70;;;;;;;1.06;100.00;96774.02;105154;1304;24307;-76
2022/11/25 08:12:56;;;;;;;16.50;11.10;;;;;;;1.09;100.00;96773.73;105239;1304;22568;-76
2022/11/25 08:15:27;;;;;;;15.80;10.50;;;;;;;1.10;100.00;96773.30;105112;1303;22466;-76
2022/11/25 08:18:01;;;;;;;13.20;10.00;;;;;;;1.12;100.00;96776.15;105164;1295;22491;-76
2022/11/25 08:20:33;;;;;;;15.60;11.70;;;;;;;1.14;100.00;96779.92;105143;1302;22611;-76
2022/11/25 08:23:04;;;;;;;16.00;10.90;;;;;;;1.15;100.00;96775.78;105106;1305;23396;-76
2022/11/25 08:25:41;;;;;;;14.20;10.60;;;;;;;1.19;100.00;96777.18;105096;1305;22522;-76
2022/11/25 08:28:15;;;;;;;16.50;11.60;;;;;;;1.23;100.00;96780.64;105148;1281;22437;-76
2022/11/25 08:30:46;;;;;;;15.50;11.70;;;;;;;1.24;100.00;96783.48;105132;1304;22475;-76
2022/11/25 08:33:18;;;;;;;17.10;11.90;;;;;;;1.24;100.00;96784.08;105152;1304;22476;-76
2022/11/25 08:35:56;;;;;;;17.40;12.20;;;;;;;1.26;100.00;96784.98;105116;1284;22472;-76
2022/11/25 08:38:28;;;;;;;14.10;10.30;;;;;;;1.27;100.00;96786.50;105152;1293;22476;-76
2022/11/25 08:41:00;;;;;;;16.50;11.60;;;;;;;1.29;100.00;96793.26;105136;1303;22481;-76
2022/11/25 08:43:31;;;;;;;15.40;10.50;;;;;;;1.30;100.00;96793.65;105236;1296;22461;-76
2022/11/25 08:46:07;;;;;;;16.80;10.70;;;;;;;1.31;100.00;96791.71;105166;1304;22513;-76
2022/11/25 08:48:38;;;;;;;16.40;10.50;;;;;;;1.33;100.00;96794.48;105139;1298;22864;-76
2022/11/25 08:51:12;;;;;;;14.70;10.30;;;;;;;1.35;100.00;96794.03;105151;1296;22647;-76
2022/11/25 08:53:45;;;;;;;16.90;11.30;;;;;;;1.39;100.00;96793.39;105279;1295;25479;-76
2022/11/25 08:56:17;;;;;;;13.00;9.90;;;;;;;1.41;100.00;96791.61;105168;1283;25377;-76
2022/11/25 08:58:53;;;;;;;15.80;11.50;;;;;;;1.45;100.00;96797.24;105269;1296;22512;-76
2022/11/25 09:01:25;;;;;;;15.20;10.80;;;;;;;1.48;100.00;96798.21;105143;1304;22798;-77
2022/11/25 09:03:57;;;;;;;15.90;11.10;;;;;;;1.49;100.00;96798.36;105198;1304;22898;-76
2022/11/25 09:06:29;;;;;;;16.40;10.60;;;;;;;1.51;100.00;96801.11;105250;1295;25986;-76
2022/11/25 09:09:04;;;;;;;16.10;10.50;;;;;;;1.53;100.00;96799.77;105161;1293;22477;-76
2022/11/25 09:11:36;;;;;;;16.90;11.60;;;;;;;1.56;100.00;96803.70;105112;1295;24484;-76
2022/11/25 09:14:08;;;;;;;13.80;9.90;;;;;;;1.58;100.00;96803.38;105162;1293;22546;-76
2022/11/25 09:16:39;;;;;;;17.20;12.10;;;;;;;1.59;100.00;96803.95;105100;1305;22492;-76
2022/11/25 09:19:13;;;;;;;17.30;12.50;;;;;;;1.59;100.00;96803.02;105181;1302;25337;-76
2022/11/25 09:21:46;;;;;;;15.60;11.00;;;;;;;1.61;100.00;96805.23;105107;1304;22778;-76
2022/11/25 09:24:17;;;;;;;16.60;11.30;;;;;;;1.62;100.00;96808.16;105123;1305;22469;-76
2022/11/25 09:26:48;;;;;;;19.80;12.50;;;;;;;1.64;100.00;96807.74;105143;1304;22531;-76
2022/11/25 09:29:20;;;;;;;19.20;11.40;;;;;;;1.65;100.00;96805.10;105136;1304;22512;-76
2022/11/25 09:31:53;;;;;;;17.70;12.60;;;;;;;1.70;100.00;96802.34;105096;1305;22490;-76
2022/11/25 09:34:24;;;;;;;17.90;13.40;;;;;;;1.75;100.00;96800.52;105175;1303;22526;-76
2022/11/25 09:36:55;;;;;;;18.10;12.70;;;;;;;1.81;100.00;96801.65;105078;1291;22464;-76
2022/11/25 09:39:29;;;;;;;18.50;13.10;;;;;;;1.84;100.00;96804.73;105094;1305;23747;-76
2022/11/25 09:48:18;;;;;;;23.60;15.60;;;;;;;1.81;100.00;96808.16;105091;1305;24256;-76
2022/11/25 09:51:01;;;;;;;19.80;14.10;;;;;;;1.82;100.00;96803.38;105114;1295;22533;-76
2022/11/25 09:53:45;;;;;;;19.90;13.80;;;;;;;1.90;100.00;96805.14;105078;1305;22971;-77
2022/11/25 09:56:27;;;;;;;24.40;16.00;;;;;;;2.00;100.00;96801.98;105066;1300;22838;-76
2022/11/25 09:59:02;;;;;;;21.60;13.90;;;;;;;2.06;100.00;96801.73;105081;1304;22484;-77
2022/11/25 10:01:44;;;;;;;18.70;13.50;;;;;;;2.13;100.00;96801.14;105099;1297;25295;-77
2022/11/25 10:04:19;;;;;;;15.60;11.50;;;;;;;2.19;100.00;96801.35;105110;1299;22458;-77
2022/11/25 10:06:55;;;;;;;16.60;11.30;;;;;;;2.24;100.00;96803.32;105106;1305;22600;-77
2022/11/25 10:09:30;;;;;;;17.70;10.00;;;;;;;2.29;100.00;96802.59;105126;1284;24255;-77
2022/11/25 10:12:07;;;;;;;17.10;11.50;;;;;;;2.33;100.00;96804.98;105101;1291;22505;-77
2022/11/25 10:14:44;;;;;;;21.50;14.00;;;;;;;2.39;100.00;96804.52;105064;1292;23374;-77
2022/11/25 10:17:25;;;;;;;16.30;10.50;;;;;;;2.39;100.00;96804.19;105066;1300;22513;-77
2022/11/25 10:20:07;;;;;;;14.20;9.70;;;;;;;2.38;100.00;96807.48;105152;1305;25883;-77
2022/11/25 10:22:41;;;;;;;15.70;10.70;;;;;;;2.42;100.00;96808.90;105149;1298;22508;-77
2022/11/25 10:25:19;;;;;;;16.30;11.20;;;;;;;2.45;100.00;96809.27;105200;1302;22479;-77
2022/11/25 10:27:55;;;;;;;17.40;11.20;;;;;;;2.42;100.00;96808.23;105170;1297;24109;-77
2022/11/25 10:30:35;;;;;;;15.50;9.70;;;;;;;2.43;100.00;96806.60;105130;1296;22547;-77
2022/11/25 10:33:14;;;;;;;18.70;10.90;;;;;;;2.46;100.00;96810.50;105123;1305;25656;-77
2022/11/25 10:35:51;;;;;;;14.80;7.80;;;;;;;2.50;100.00;96812.59;105037;1305;22685;-77
2022/11/25 10:38:29;;;;;;;13.90;9.30;;;;;;;2.50;100.00;96816.99;105138;1281;25386;-77
2022/11/25 10:41:03;;;;;;;17.30;9.80;;;;;;;2.48;100.00;96817.63;105176;1305;23870;-77
2022/11/25 10:43:37;;;;;;;16.60;10.60;;;;;;;2.41;100.00;96816.77;105140;1304;22481;-77
2022/11/25 10:46:17;;;;;;;18.00;11.20;;;;;;;2.40;100.00;96816.06;105055;1296;23219;-77
2022/11/25 10:49:00;;;;;;;13.70;10.30;;;;;;;2.45;100.00;96816.23;105168;1290;23160;-77
2022/11/25 10:51:40;;;;;;;13.80;9.30;;;;;;;2.50;100.00;96821.99;105172;1290;22902;-77
2022/11/25 10:54:14;;;;;;;18.10;12.90;;;;;;;2.51;100.00;96826.52;105147;1304;22470;-77
2022/11/25 10:56:50;;;;;;;21.20;13.20;;;;;;;2.46;100.00;96826.69;105069;1289;23751;-77
2022/11/25 10:59:30;;;;;;;18.10;12.90;;;;;;;2.44;100.00;96825.67;105151;1305;22493;-77
2022/11/25 11:02:24;;;;;;;16.30;11.00;;;;;;;2.44;100.00;96825.23;105122;1281;22495;-77
2022/11/25 11:05:03;;;;;;;19.00;13.30;;;;;;;2.49;100.00;96827.48;105077;1305;22472;-77
2022/11/25 11:07:36;;;;;;;18.50;10.80;;;;;;;2.47;100.00;96827.52;105165;1290;22479;-77
2022/11/25 11:10:25;;;;;;;15.80;11.10;;;;;;;2.46;100.00;96828.04;105134;1304;22575;-77
2022/11/25 11:13:02;;;;;;;17.70;10.00;;;;;;;2.48;100.00;96827.35;105115;1289;22879;-77
2022/11/25 11:15:46;;;;;;;17.40;12.70;;;;;;;2.47;100.00;96829.77;105069;1297;25209;-77
2022/11/25 11:18:27;;;;;;;16.10;11.80;;;;;;;2.49;100.00;96827.12;105044;1283;22510;-77
2022/11/25 11:21:00;;;;;;;16.10;11.70;;;;;;;2.50;100.00;96827.19;105095;1290;22476;-77
2022/11/25 11:23:31;;;;;;;16.00;10.90;;;;;;;2.51;100.00;96826.37;105107;1291;24255;-77
2022/11/25 11:26:05;;;;;;;20.20;14.30;;;;;;;2.50;100.00;96827.82;105108;1298;23685;-77
2022/11/25 11:28:42;;;;;;;16.90;12.80;;;;;;;2.53;100.00;96827.11;105317;1304;25401;-77
2022/11/25 11:31:23;;;;;;;18.90;11.70;;;;;;;2.56;100.00;96827.00;105260;1296;25388;-77
2022/11/25 11:34:03;;;;;;;18.00;12.60;;;;;;;2.58;100.00;96827.37;105205;1296;22451;-77
2022/11/25 11:36:48;;;;;;;20.30;13.10;;;;;;;2.60;100.00;96828.42;105082;1289;38307;-77
2022/11/25 11:39:50;;;;;;;20.50;14.30;;;;;;;2.62;100.00;96830.61;105129;1283;22469;-77
2022/11/25 11:42:32;;;;;;;20.00;14.20;;;;;;;2.59;100.00;96825.91;105188;1293;22485;-77
2022/11/25 11:45:12;;;;;;;21.50;14.20;;;;;;;2.58;100.00;96828.52;105121;1304;24281;-77
2022/11/25 11:47:53;;;;;;;15.50;10.80;;;;;;;2.58;100.00;96826.37;105214;1290;22495;-77
2022/11/25 11:50:30;;;;;;;;;;;;;;;2.57;100.00;96826.77;105286;1292;22465;-77
2022/11/25 11:53:13;;;;;;;20.30;13.00;;;;;;;2.61;100.00;96826.60;105254;1290;22477;-77
2022/11/25 11:56:06;;;;;;;18.70;12.70;;;;;;;2.64;100.00;96830.91;105102;1305;24431;-77